createdAt,value
2023-01-13T00:01:20.893Z,99268.13
2023-01-13T00:03:47.767Z,99249.72
2023-01-13T00:06:19.843Z,99345.44
2023-01-13T00:08:50.589Z,99352.19
2023-01-13T00:11:19.008Z,99359.84
2023-01-13T00:13:46.027Z,99338.94
2023-01-13T00:16:18.389Z,99349.16
2023-01-13T00:18:46.177Z,99288.56
2023-01-13T00:21:16.152Z,99360.75
2023-01-13T00:23:44.084Z,99301.84
2023-01-13T00:26:14.260Z,99384.13
2023-01-13T00:28:41.370Z,99322.78
2023-01-13T00:31:10.634Z,99327.94
2023-01-13T00:33:38.053Z,99290.16
2023-01-13T00:36:07.287Z,99348.16
2023-01-13T00:38:35.823Z,99341.34
2023-01-13T00:41:08.742Z,99281.41
2023-01-13T00:43:37.375Z,99241.81
2023-01-13T00:46:06.069Z,99374.59
2023-01-13T00:48:33.724Z,99177.22
2023-01-13T00:51:08.744Z,99323.41
2023-01-13T00:53:38.650Z,99243.50
2023-01-13T00:56:08.102Z,99373.78
2023-01-13T00:58:35.672Z,99295.47
2023-01-13T01:01:09.415Z,99347.63
2023-01-13T01:03:36.447Z,99261.63
2023-01-13T01:06:12.830Z,99306.28
2023-01-13T01:08:40.295Z,99249.72
2023-01-13T01:11:10.559Z,99329.56
2023-01-13T01:13:38.136Z,99258.84
2023-01-13T01:16:09.380Z,99300.88
2023-01-13T01:18:41.615Z,99250.34
2023-01-13T01:21:09.504Z,99314.13
2023-01-13T01:23:37.330Z,99285.84
2023-01-13T01:26:10.876Z,99318.47
2023-01-13T01:28:38.151Z,99263.78
2023-01-13T01:31:15.381Z,99289.88
2023-01-13T01:33:43.172Z,99315.91
2023-01-13T01:36:12.198Z,99302.28
2023-01-13T01:38:39.146Z,99300.50
2023-01-13T01:41:06.950Z,99304.72
2023-01-13T01:44:08.076Z,99302.97
2023-01-13T01:46:40.459Z,99307.34
2023-01-13T01:49:25.043Z,99252.66
2023-01-13T01:52:06.633Z,99309.69
2023-01-13T01:55:14.702Z,99299.44
2023-01-13T01:57:56.881Z,99301.09
2023-01-13T02:00:25.617Z,99201.97
2023-01-13T02:02:53.055Z,99156.50
2023-01-13T02:05:20.148Z,99270.69
2023-01-13T02:07:49.742Z,99210.06
2023-01-13T02:10:23.558Z,99195.56
2023-01-13T02:12:51.234Z,99256.75
2023-01-13T02:15:22.815Z,99160.47
2023-01-13T02:18:10.762Z,99248.34
2023-01-13T02:20:57.084Z,99193.09
2023-01-13T02:23:57.804Z,99249.97
2023-01-13T02:26:36.658Z,99266.00
2023-01-13T02:29:43.835Z,99221.59
2023-01-13T02:32:33.194Z,99261.69
2023-01-13T02:35:18.732Z,99261.56
2023-01-13T02:37:46.287Z,99183.34
2023-01-13T02:40:56.808Z,99253.81
2023-01-13T02:43:57.564Z,99165.00
2023-01-13T02:46:29.928Z,99261.63
2023-01-13T02:49:01.275Z,99238.78
2023-01-13T02:51:31.576Z,99195.88
2023-01-13T02:54:13.784Z,99284.16
2023-01-13T02:56:44.603Z,99234.97
2023-01-13T02:59:13.140Z,99255.91
2023-01-13T03:01:40.752Z,99169.63
2023-01-13T03:04:45.905Z,99184.56
2023-01-13T03:07:25.942Z,99240.97
2023-01-13T03:10:31.326Z,99231.72
2023-01-13T03:13:16.640Z,99262.75
2023-01-13T03:16:20.819Z,99257.59
2023-01-13T03:19:08.863Z,99264.44
2023-01-13T03:21:57.399Z,99262.81
2023-01-13T03:24:42.559Z,99269.56
2023-01-13T03:27:18.976Z,99276.34
2023-01-13T03:30:01.096Z,99273.75
2023-01-13T03:32:50.908Z,99202.66
2023-01-13T03:35:20.910Z,99263.44
2023-01-13T03:37:53.321Z,99260.16
2023-01-13T03:40:31.812Z,99253.34
2023-01-13T03:43:27.664Z,99176.34
2023-01-13T03:45:59.674Z,99194.53
2023-01-13T03:48:28.764Z,99133.91
2023-01-13T03:51:02.588Z,99179.16
2023-01-13T03:53:34.166Z,99185.88
2023-01-13T03:56:24.356Z,99225.28
2023-01-13T03:58:53.132Z,99164.00
2023-01-13T04:01:47.179Z,99219.13
2023-01-13T04:04:24.261Z,99147.03
2023-01-13T04:07:01.652Z,99229.16
2023-01-13T04:09:44.447Z,99151.88
2023-01-13T04:12:17.715Z,99132.00
2023-01-13T04:14:46.121Z,99183.06
2023-01-13T04:17:13.255Z,99218.94
2023-01-13T04:19:39.954Z,99182.03
2023-01-13T04:22:06.857Z,99229.91
2023-01-13T04:24:33.599Z,99179.41
2023-01-13T04:27:03.718Z,99226.31
2023-01-13T04:29:30.485Z,99226.53
2023-01-13T04:31:57.339Z,99210.56
2023-01-13T04:34:24.062Z,99157.47
2023-01-13T04:36:50.896Z,99069.47
2023-01-13T04:39:18.026Z,99222.63
2023-01-13T04:42:00.005Z,99175.56
2023-01-13T04:44:31.369Z,99218.13
2023-01-13T04:46:58.778Z,99219.00
2023-01-13T04:49:25.598Z,99173.03
2023-01-13T04:51:52.364Z,99125.41
2023-01-13T04:54:19.081Z,99191.50
2023-01-13T04:56:46.054Z,99178.06
2023-01-13T04:59:13.752Z,99197.56
2023-01-13T05:01:41.131Z,99163.94
2023-01-13T05:04:08.233Z,99240.69
2023-01-13T05:06:35.115Z,99182.50
2023-01-13T05:09:01.871Z,99133.91
2023-01-13T05:11:47.452Z,99183.16
2023-01-13T05:14:32.734Z,99095.94
2023-01-13T05:17:02.544Z,99161.34
2023-01-13T05:19:32.991Z,99126.88
2023-01-13T05:22:19.297Z,99203.03
2023-01-13T05:25:04.933Z,99201.44
2023-01-13T05:27:32.694Z,99190.06
2023-01-13T05:29:59.707Z,99120.63
2023-01-13T05:32:30.255Z,99146.06
2023-01-13T05:34:57.245Z,99160.19
2023-01-13T05:37:24.760Z,99100.69
2023-01-13T05:40:10.497Z,99053.75
2023-01-13T05:42:56.125Z,99204.72
2023-01-13T05:45:22.950Z,99133.88
2023-01-13T05:47:50.081Z,99123.84
2023-01-13T05:50:17.489Z,99181.66
2023-01-13T05:52:44.637Z,99214.44
2023-01-13T05:55:12.067Z,99167.41
2023-01-13T05:57:38.769Z,99231.56
2023-01-13T06:00:05.988Z,99057.81
2023-01-13T06:02:38.607Z,99195.88
2023-01-13T06:05:05.572Z,99211.00
2023-01-13T06:07:32.279Z,99138.59
2023-01-13T06:09:59.006Z,99009.00
2023-01-13T06:12:25.661Z,99169.72
2023-01-13T06:14:52.457Z,99205.78
2023-01-13T06:17:19.258Z,99029.97
2023-01-13T06:19:46.086Z,99129.69
2023-01-13T06:22:32.310Z,99189.22
2023-01-13T06:24:59.400Z,99167.50
2023-01-13T06:27:26.222Z,99201.97
2023-01-13T06:29:52.925Z,99169.25
2023-01-13T06:32:26.987Z,99216.25
2023-01-13T06:35:05.300Z,99158.22
2023-01-13T06:37:34.551Z,99149.75
2023-01-13T06:40:04.135Z,99178.19
2023-01-13T06:42:53.099Z,99163.28
2023-01-13T06:45:20.677Z,99227.06
2023-01-13T06:47:47.504Z,99176.78
2023-01-13T06:50:14.357Z,99156.91
2023-01-13T06:52:41.107Z,99205.41
2023-01-13T06:55:07.986Z,99209.31
2023-01-13T06:57:34.693Z,99223.75
2023-01-13T07:00:01.547Z,99239.03
2023-01-13T07:02:28.431Z,99233.09
2023-01-13T07:04:55.195Z,99219.13
2023-01-13T07:07:22.084Z,99243.53
2023-01-13T07:09:49.704Z,99251.00
2023-01-13T07:12:16.675Z,99221.63
2023-01-13T07:15:01.668Z,99237.56
2023-01-13T07:17:28.377Z,99065.88
2023-01-13T07:19:55.228Z,99219.19
2023-01-13T07:22:22.120Z,99239.34
2023-01-13T07:24:48.819Z,99241.84
2023-01-13T07:27:15.803Z,99229.94
2023-01-13T07:29:43.853Z,99227.25
2023-01-13T07:32:10.688Z,99199.44
2023-01-13T07:34:37.456Z,99223.47
2023-01-13T07:37:04.273Z,99131.47
2023-01-13T07:39:31.086Z,99236.22
2023-01-13T07:42:16.594Z,99225.19
2023-01-13T07:44:44.014Z,99220.03
2023-01-13T07:47:11.289Z,99215.69
2023-01-13T07:49:38.124Z,99110.88
2023-01-13T07:52:05.206Z,99160.25
2023-01-13T07:54:40.684Z,99228.53
2023-01-13T07:57:08.349Z,99218.88
2023-01-13T07:59:35.099Z,99139.16
2023-01-13T08:02:02.015Z,99209.34
2023-01-13T08:04:28.965Z,99119.91
2023-01-13T08:06:55.764Z,99162.50
2023-01-13T08:09:22.479Z,99275.72
2023-01-13T08:12:09.179Z,99275.88
2023-01-13T08:14:36.250Z,99258.31
2023-01-13T08:17:02.999Z,99240.09
2023-01-13T08:19:29.796Z,99196.44
2023-01-13T08:21:57.105Z,99255.13
2023-01-13T08:24:23.877Z,99202.28
2023-01-13T08:26:50.653Z,99244.84
2023-01-13T08:29:17.749Z,99279.13
2023-01-13T08:31:44.613Z,99259.75
2023-01-13T08:34:11.491Z,99253.81
2023-01-13T08:36:38.427Z,99240.50
2023-01-13T08:39:05.352Z,99268.88
2023-01-13T08:41:55.117Z,99226.75
2023-01-13T08:44:29.357Z,99133.69
2023-01-13T08:46:56.913Z,99198.84
2023-01-13T08:49:25.020Z,99269.03
2023-01-13T08:51:52.786Z,99278.50
2023-01-13T08:54:19.861Z,99221.25
2023-01-13T08:56:47.104Z,99260.56
2023-01-13T08:59:15.616Z,99243.44
2023-01-13T09:01:42.944Z,99258.25
2023-01-13T09:04:21.675Z,99218.19
2023-01-13T09:06:49.126Z,99224.06
2023-01-13T09:09:16.632Z,99211.38
2023-01-13T09:12:04.515Z,99221.56
2023-01-13T09:14:34.017Z,99243.84
2023-01-13T09:17:01.087Z,99191.75
2023-01-13T09:19:28.803Z,99227.81
2023-01-13T09:21:56.828Z,99237.63
2023-01-13T09:24:24.483Z,99253.06
2023-01-13T09:26:51.431Z,99212.63
2023-01-13T09:29:18.396Z,99222.50
2023-01-13T09:31:45.576Z,99190.28
2023-01-13T09:34:37.517Z,99197.78
2023-01-13T09:37:06.418Z,99064.47
2023-01-13T09:39:34.015Z,99180.75
2023-01-13T09:42:46.882Z,99214.81
2023-01-13T09:45:23.764Z,99215.59
2023-01-13T09:48:16.084Z,99224.94
2023-01-13T09:51:18.645Z,99217.41
2023-01-13T09:53:55.761Z,99227.75
2023-01-13T09:56:26.513Z,99208.84
2023-01-13T09:58:53.411Z,99176.84
2023-01-13T10:01:34.827Z,99204.50
2023-01-13T10:04:11.225Z,99095.63
2023-01-13T10:06:42.412Z,99167.50
2023-01-13T10:09:17.213Z,99206.81
2023-01-13T10:12:06.213Z,99062.47
2023-01-13T10:14:49.462Z,99183.75
2023-01-13T10:17:39.113Z,99191.34
2023-01-13T10:20:17.791Z,99188.84
2023-01-13T10:23:02.743Z,99187.38
2023-01-13T10:25:45.709Z,99199.25
2023-01-13T10:28:17.706Z,99073.34
2023-01-13T10:30:47.831Z,99162.41
2023-01-13T10:33:28.355Z,99160.69
2023-01-13T10:35:55.146Z,99168.06
2023-01-13T10:38:29.983Z,99180.97
2023-01-13T10:41:05.553Z,99108.84
2023-01-13T10:43:32.705Z,99151.59
2023-01-13T10:46:06.020Z,99182.09
2023-01-13T10:48:57.083Z,99005.75
2023-01-13T10:51:39.112Z,99166.38
2023-01-13T10:54:12.524Z,99161.06
2023-01-13T10:56:47.447Z,99107.88
2023-01-13T10:59:22.127Z,99158.53
2023-01-13T11:02:13.156Z,99035.59
2023-01-13T11:04:55.919Z,99153.63
2023-01-13T11:07:34.673Z,99029.16
2023-01-13T11:10:27.430Z,99147.09
2023-01-13T11:13:01.308Z,99185.22
2023-01-13T11:15:43.490Z,99149.47
2023-01-13T11:18:22.251Z,99094.97
2023-01-13T11:20:51.312Z,99133.50
2023-01-13T11:23:29.902Z,99136.44
2023-01-13T11:26:14.632Z,99107.97
2023-01-13T11:28:58.772Z,99124.84
2023-01-13T11:31:25.494Z,99123.88
2023-01-13T11:34:11.422Z,99009.28
2023-01-13T11:36:51.286Z,99108.44
2023-01-13T11:39:27.206Z,99128.19
2023-01-13T11:42:20.112Z,98986.91
2023-01-13T11:45:00.478Z,99079.50
2023-01-13T11:47:27.977Z,99134.41
2023-01-13T11:49:55.326Z,99123.19
2023-01-13T11:52:45.665Z,99092.63
2023-01-13T11:55:25.583Z,99081.72
2023-01-13T11:58:01.380Z,99119.84
2023-01-13T12:00:34.932Z,99121.41
2023-01-13T12:03:07.367Z,99118.75
2023-01-13T12:05:39.595Z,99087.19
2023-01-13T12:08:06.370Z,99112.84
2023-01-13T12:10:57.288Z,99112.81
2023-01-13T12:13:43.335Z,99070.34
2023-01-13T12:16:30.660Z,99055.06
2023-01-13T12:19:21.920Z,99115.41
2023-01-13T12:22:27.783Z,99121.50
2023-01-13T12:25:16.972Z,98996.94
2023-01-13T12:27:53.579Z,99083.28
2023-01-13T12:30:36.982Z,99032.53
2023-01-13T12:33:30.585Z,99067.16
2023-01-13T12:36:12.006Z,99144.75
2023-01-13T12:38:59.500Z,99132.00
2023-01-13T12:42:23.888Z,99121.19
2023-01-13T12:45:12.237Z,99138.94
2023-01-13T12:47:44.104Z,99082.00
2023-01-13T12:50:23.680Z,99134.72
2023-01-13T12:52:51.274Z,99063.63
2023-01-13T12:55:21.065Z,99085.38
2023-01-13T12:57:58.231Z,99159.97
2023-01-13T13:00:51.768Z,99128.75
2023-01-13T13:03:27.520Z,99150.84
2023-01-13T13:06:02.049Z,99122.44
2023-01-13T13:08:39.827Z,99111.13
2023-01-13T13:11:39.130Z,99094.50
2023-01-13T13:14:15.306Z,99108.63
2023-01-13T13:16:50.349Z,99138.84
2023-01-13T13:19:20.135Z,99131.38
2023-01-13T13:22:12.007Z,99140.09
2023-01-13T13:24:40.279Z,99124.16
2023-01-13T13:27:21.558Z,99070.63
2023-01-13T13:29:52.767Z,98987.53
2023-01-13T13:32:44.281Z,99140.09
2023-01-13T13:35:42.592Z,98976.41
2023-01-13T13:38:49.418Z,99139.41
2023-01-13T13:41:44.834Z,99136.84
2023-01-13T13:44:50.104Z,99132.16
2023-01-13T13:47:17.684Z,99082.53
2023-01-13T13:49:53.872Z,99120.09
2023-01-13T13:52:21.008Z,99143.63
2023-01-13T13:54:53.056Z,99115.53
2023-01-13T13:57:32.890Z,99068.53
2023-01-13T14:00:03.739Z,99098.47
2023-01-13T14:02:42.048Z,99154.84
2023-01-13T14:05:14.812Z,99168.25
2023-01-13T14:07:52.288Z,99156.44
2023-01-13T14:10:28.656Z,99010.13
2023-01-13T14:12:58.586Z,99152.25
2023-01-13T14:15:46.026Z,99147.88
2023-01-13T14:18:17.956Z,99146.91
2023-01-13T14:20:54.129Z,99120.34
2023-01-13T14:23:25.990Z,99142.97
2023-01-13T14:25:52.803Z,99137.22
2023-01-13T14:28:32.389Z,99146.09
2023-01-13T14:30:59.664Z,99145.34
2023-01-13T14:33:46.022Z,99091.06
2023-01-13T14:36:36.732Z,99137.03
2023-01-13T14:39:03.349Z,99139.50
2023-01-13T14:41:35.560Z,99132.72
2023-01-13T14:44:37.547Z,99131.19
2023-01-13T14:47:23.808Z,99134.47
2023-01-13T14:49:58.932Z,99130.28
2023-01-13T14:52:28.205Z,99102.50
2023-01-13T14:54:57.903Z,99138.19
2023-01-13T14:57:32.644Z,99086.31
2023-01-13T15:00:04.663Z,99107.81
2023-01-13T15:02:32.320Z,99132.91
2023-01-13T15:05:19.810Z,99141.44
2023-01-13T15:07:53.620Z,99139.69
2023-01-13T15:10:25.159Z,99092.22
2023-01-13T15:12:54.395Z,99126.69
2023-01-13T15:15:28.765Z,99131.78
2023-01-13T15:17:55.808Z,99067.97
2023-01-13T15:20:24.551Z,99019.09
2023-01-13T15:22:52.419Z,99134.69
2023-01-13T15:25:20.146Z,99133.72
2023-01-13T15:27:50.891Z,99137.00
2023-01-13T15:30:25.156Z,99174.59
2023-01-13T15:32:55.003Z,99103.41
2023-01-13T15:35:23.680Z,99129.16
2023-01-13T15:37:51.195Z,99105.78
2023-01-13T15:40:45.478Z,99154.19
2023-01-13T15:43:34.030Z,99122.34
2023-01-13T15:46:19.969Z,99123.28
2023-01-13T15:48:53.084Z,99134.84
2023-01-13T15:51:21.503Z,99158.47
2023-01-13T15:53:48.299Z,99073.78
2023-01-13T15:56:25.318Z,99163.47
2023-01-13T15:58:52.761Z,99106.59
2023-01-13T16:01:19.704Z,99074.78
2023-01-13T16:03:46.479Z,99107.50
2023-01-13T16:06:24.476Z,99177.38
2023-01-13T16:08:51.309Z,99063.22
2023-01-13T16:11:18.072Z,99130.22
2023-01-13T16:13:44.863Z,99113.50
2023-01-13T16:16:26.441Z,99166.94
2023-01-13T16:18:54.511Z,99146.16
2023-01-13T16:21:24.627Z,99175.56
2023-01-13T16:23:51.957Z,99132.69
2023-01-13T16:26:21.689Z,99119.16
2023-01-13T16:28:49.551Z,99170.38
2023-01-13T16:31:19.417Z,99140.78
2023-01-13T16:33:46.232Z,99119.06
2023-01-13T16:36:18.309Z,99137.56
2023-01-13T16:38:45.143Z,99162.09
2023-01-13T16:41:12.062Z,99135.22
2023-01-13T16:43:39.125Z,99026.41
2023-01-13T16:46:29.280Z,99158.69
2023-01-13T16:49:01.654Z,99129.91
2023-01-13T16:51:28.604Z,99147.47
2023-01-13T16:53:55.620Z,99140.78
2023-01-13T16:56:26.957Z,99169.75
2023-01-13T16:58:56.403Z,99149.25
2023-01-13T17:01:30.041Z,99145.13
2023-01-13T17:03:58.084Z,99158.72
2023-01-13T17:06:32.976Z,99038.91
2023-01-13T17:09:06.116Z,99192.22
2023-01-13T17:11:33.419Z,99160.16
2023-01-13T17:14:00.354Z,99166.81
2023-01-13T17:16:28.157Z,99116.25
2023-01-13T17:18:55.492Z,99103.09
2023-01-13T17:21:22.312Z,99133.28
2023-01-13T17:23:49.068Z,99172.72
2023-01-13T17:26:29.906Z,99116.41
2023-01-13T17:28:56.689Z,99115.66
2023-01-13T17:31:23.717Z,99142.72
2023-01-13T17:33:50.396Z,99145.06
2023-01-13T17:36:17.107Z,99084.13
2023-01-13T17:38:43.991Z,99154.56
2023-01-13T17:41:10.759Z,99137.72
2023-01-13T17:43:37.540Z,99033.84
2023-01-13T17:46:09.171Z,99099.88
2023-01-13T17:48:36.207Z,99113.22
2023-01-13T17:51:06.684Z,99141.03
2023-01-13T17:53:33.992Z,99109.75
2023-01-13T17:56:00.728Z,99130.69
2023-01-13T17:58:27.442Z,99086.13
2023-01-13T18:00:54.283Z,99145.88
2023-01-13T18:03:21.119Z,99125.03
2023-01-13T18:05:47.992Z,99110.16
2023-01-13T18:08:14.821Z,99163.38
2023-01-13T18:10:41.840Z,99110.59
2023-01-13T18:13:09.774Z,99098.94
2023-01-13T18:15:36.679Z,99158.50
2023-01-13T18:18:03.608Z,99097.34
2023-01-13T18:20:58.580Z,99161.50
2023-01-13T18:23:44.058Z,99145.53
2023-01-13T18:26:38.016Z,99100.84
2023-01-13T18:29:05.149Z,99123.28
2023-01-13T18:31:31.838Z,98992.00
2023-01-13T18:33:58.486Z,99159.63
2023-01-13T18:36:25.372Z,99095.94
2023-01-13T18:38:52.250Z,99072.41
2023-01-13T18:41:37.948Z,99140.63
2023-01-13T18:44:07.277Z,99077.00
2023-01-13T18:46:34.104Z,99186.06
2023-01-13T18:49:00.764Z,99183.59
2023-01-13T18:51:27.583Z,99165.97
2023-01-13T18:53:54.249Z,99159.41
2023-01-13T18:56:21.095Z,99188.38
2023-01-13T18:58:52.075Z,99166.47
2023-01-13T19:01:27.492Z,99206.31
2023-01-13T19:04:05.148Z,99130.69
2023-01-13T19:06:33.770Z,99192.56
2023-01-13T19:09:08.261Z,99191.00
2023-01-13T19:11:38.741Z,99166.00
2023-01-13T19:14:05.559Z,99154.47
2023-01-13T19:16:32.303Z,99170.38
2023-01-13T19:18:59.965Z,99199.00
2023-01-13T19:21:26.723Z,99139.56
2023-01-13T19:23:55.666Z,99198.22
2023-01-13T19:26:22.950Z,99130.72
2023-01-13T19:28:50.502Z,99173.19
2023-01-13T19:31:20.325Z,99177.34
2023-01-13T19:33:47.222Z,99143.91
2023-01-13T19:36:14.112Z,99149.94
2023-01-13T19:38:40.835Z,99135.72
2023-01-13T19:41:27.758Z,99173.19
2023-01-13T19:44:14.895Z,99176.47
2023-01-13T19:46:41.666Z,99200.88
2023-01-13T19:49:08.406Z,99183.94
2023-01-13T19:51:35.100Z,99136.19
2023-01-13T19:54:01.856Z,99143.88
2023-01-13T19:56:29.474Z,99096.28
2023-01-13T19:58:56.796Z,99089.53
2023-01-13T20:01:31.641Z,99183.84
2023-01-13T20:04:03.255Z,99000.56
2023-01-13T20:06:31.651Z,99189.75
2023-01-13T20:08:59.393Z,99149.00
2023-01-13T20:11:31.399Z,99144.75
2023-01-13T20:13:59.800Z,99171.59
2023-01-13T20:16:30.254Z,99191.06
2023-01-13T20:18:56.911Z,99192.84
2023-01-13T20:21:23.765Z,99191.91
2023-01-13T20:23:52.534Z,99050.25
2023-01-13T20:26:20.556Z,99136.38
2023-01-13T20:28:47.712Z,99148.81
2023-01-13T20:31:15.669Z,99200.94
2023-01-13T20:33:42.670Z,99056.91
2023-01-13T20:36:27.790Z,99205.13
2023-01-13T20:39:00.587Z,99189.56
2023-01-13T20:41:46.679Z,99168.16
2023-01-13T20:44:15.177Z,99223.88
2023-01-13T20:46:43.502Z,99087.22
2023-01-13T20:49:11.632Z,99105.56
2023-01-13T20:51:38.407Z,99178.44
2023-01-13T20:54:05.408Z,99200.09
2023-01-13T20:56:32.372Z,99079.59
2023-01-13T20:58:59.064Z,99174.38
2023-01-13T21:01:26.620Z,99206.03
2023-01-13T21:03:57.141Z,99127.25
2023-01-13T21:06:23.994Z,99201.09
2023-01-13T21:08:53.200Z,99182.81
2023-01-13T21:11:42.126Z,99201.56
2023-01-13T21:14:42.528Z,99174.63
2023-01-13T21:17:28.900Z,99080.84
2023-01-13T21:19:56.544Z,99117.03
2023-01-13T21:22:23.611Z,99155.19
2023-01-13T21:24:50.353Z,99187.91
2023-01-13T21:27:17.700Z,99193.03
2023-01-13T21:29:44.623Z,99192.94
2023-01-13T21:32:11.708Z,99174.47
2023-01-13T21:34:38.601Z,99209.59
2023-01-13T21:37:05.311Z,99173.53
2023-01-13T21:39:32.155Z,99072.31
2023-01-13T21:42:17.891Z,99118.41
2023-01-13T21:45:03.139Z,99147.69
2023-01-13T21:47:48.290Z,99202.78
2023-01-13T21:50:18.149Z,99221.47
2023-01-13T21:52:45.763Z,99192.63
2023-01-13T21:55:25.249Z,99133.88
2023-01-13T21:58:01.113Z,99100.47
2023-01-13T22:00:30.125Z,99176.63
2023-01-13T22:02:58.492Z,99139.91
2023-01-13T22:05:25.936Z,99127.94
2023-01-13T22:07:53.018Z,99013.31
2023-01-13T22:10:22.268Z,99165.88
2023-01-13T22:12:52.888Z,99158.03
2023-01-13T22:15:20.499Z,99170.56
2023-01-13T22:17:52.729Z,99148.06
2023-01-13T22:20:20.168Z,99109.06
2023-01-13T22:22:47.794Z,99197.81
2023-01-13T22:25:16.628Z,99187.56
2023-01-13T22:27:44.756Z,99122.81
2023-01-13T22:30:21.907Z,99168.06
2023-01-13T22:32:49.928Z,99144.94
2023-01-13T22:35:16.753Z,99072.75
2023-01-13T22:37:43.581Z,99187.78
2023-01-13T22:40:12.026Z,99170.72
2023-01-13T22:42:43.042Z,99177.56
2023-01-13T22:45:12.362Z,99166.94
2023-01-13T22:47:39.207Z,99177.69
2023-01-13T22:50:07.516Z,99132.59
2023-01-13T22:52:35.304Z,99189.66
2023-01-13T22:55:02.288Z,99145.22
2023-01-13T22:57:36.314Z,99186.84
2023-01-13T23:00:10.582Z,99127.56
2023-01-13T23:02:38.287Z,99181.16
2023-01-13T23:05:05.413Z,99146.03
2023-01-13T23:07:32.266Z,99185.59
2023-01-13T23:09:58.968Z,99190.25
2023-01-13T23:12:25.673Z,99212.22
2023-01-13T23:14:56.093Z,99177.50
2023-01-13T23:17:23.444Z,99133.25
2023-01-13T23:19:50.196Z,99192.38
2023-01-13T23:22:16.942Z,99195.88
2023-01-13T23:24:43.636Z,99035.69
2023-01-13T23:27:10.519Z,99083.16
2023-01-13T23:29:37.409Z,99177.59
2023-01-13T23:32:04.437Z,99065.38
2023-01-13T23:34:31.178Z,99104.81
2023-01-13T23:36:58.056Z,99168.88
2023-01-13T23:39:25.012Z,99167.69
2023-01-13T23:41:51.708Z,99061.09
2023-01-13T23:44:18.455Z,99158.72
2023-01-13T23:46:45.170Z,99167.31
2023-01-13T23:49:11.917Z,99054.16
2023-01-13T23:51:38.853Z,99064.56
2023-01-13T23:54:05.507Z,99070.44
2023-01-13T23:56:32.976Z,99139.81
2023-01-13T23:58:59.833Z,99137.69
